sensor_id;sensor_type;location;lat;lon;timestamp;P1;durP1;ratioP1;P2;durP2;ratioP2
17686;SDS011;8962;52.538;13.266;2023-09-18T00:00:25;9.20;;;8.20;;
17686;SDS011;8962;52.538;13.266;2023-09-18T00:02:54;9.27;;;7.93;;
17686;SDS011;8962;52.538;13.266;2023-09-18T00:05:21;10.15;;;8.60;;
17686;SDS011;8962;52.538;13.266;2023-09-18T00:07:48;9.25;;;7.95;;
17686;SDS011;8962;52.538;13.266;2023-09-18T00:10:16;8.82;;;7.85;;
17686;SDS011;8962;52.538;13.266;2023-09-18T00:12:44;11.18;;;8.20;;
17686;SDS011;8962;52.538;13.266;2023-09-18T00:15:13;9.10;;;7.75;;
17686;SDS011;8962;52.538;13.266;2023-09-18T00:17:40;10.90;;;8.25;;
17686;SDS011;8962;52.538;13.266;2023-09-18T00:20:07;9.70;;;7.68;;
17686;SDS011;8962;52.538;13.266;2023-09-18T00:22:35;9.85;;;7.50;;
17686;SDS011;8962;52.538;13.266;2023-09-18T00:25:02;11.10;;;8.05;;
17686;SDS011;8962;52.538;13.266;2023-09-18T00:27:29;8.82;;;7.82;;
17686;SDS011;8962;52.538;13.266;2023-09-18T00:29:58;9.45;;;7.53;;
17686;SDS011;8962;52.538;13.266;2023-09-18T00:32:26;8.35;;;7.43;;
17686;SDS011;8962;52.538;13.266;2023-09-18T00:34:54;8.77;;;7.70;;
17686;SDS011;8962;52.538;13.266;2023-09-18T00:37:22;9.70;;;8.07;;
17686;SDS011;8962;52.538;13.266;2023-09-18T00:39:52;9.88;;;8.00;;
17686;SDS011;8962;52.538;13.266;2023-09-18T00:42:20;9.88;;;7.72;;
17686;SDS011;8962;52.538;13.266;2023-09-18T00:44:48;9.10;;;7.45;;
17686;SDS011;8962;52.538;13.266;2023-09-18T00:47:15;8.02;;;7.13;;
17686;SDS011;8962;52.538;13.266;2023-09-18T00:49:45;8.10;;;7.30;;
17686;SDS011;8962;52.538;13.266;2023-09-18T00:52:14;9.27;;;7.88;;
17686;SDS011;8962;52.538;13.266;2023-09-18T00:54:43;9.55;;;7.60;;
17686;SDS011;8962;52.538;13.266;2023-09-18T00:57:11;8.45;;;7.50;;
17686;SDS011;8962;52.538;13.266;2023-09-18T00:59:38;10.25;;;7.35;;
17686;SDS011;8962;52.538;13.266;2023-09-18T01:02:06;8.40;;;7.43;;
17686;SDS011;8962;52.538;13.266;2023-09-18T01:04:33;10.60;;;7.68;;
17686;SDS011;8962;52.538;13.266;2023-09-18T01:07:03;8.60;;;7.70;;
17686;SDS011;8962;52.538;13.266;2023-09-18T01:09:30;8.65;;;7.75;;
17686;SDS011;8962;52.538;13.266;2023-09-18T01:12:00;8.77;;;7.70;;
17686;SDS011;8962;52.538;13.266;2023-09-18T01:14:33;9.40;;;7.57;;
17686;SDS011;8962;52.538;13.266;2023-09-18T01:17:09;9.93;;;7.80;;
17686;SDS011;8962;52.538;13.266;2023-09-18T01:19:37;9.40;;;7.97;;
17686;SDS011;8962;52.538;13.266;2023-09-18T01:22:08;10.73;;;7.25;;
17686;SDS011;8962;52.538;13.266;2023-09-18T01:24:37;8.20;;;6.85;;
17686;SDS011;8962;52.538;13.266;2023-09-18T01:27:07;8.27;;;7.07;;
17686;SDS011;8962;52.538;13.266;2023-09-18T01:29:35;8.20;;;7.40;;
17686;SDS011;8962;52.538;13.266;2023-09-18T01:32:02;7.65;;;6.85;;
17686;SDS011;8962;52.538;13.266;2023-09-18T01:34:31;8.45;;;6.93;;
17686;SDS011;8962;52.538;13.266;2023-09-18T01:37:01;9.45;;;7.85;;
17686;SDS011;8962;52.538;13.266;2023-09-18T01:39:31;10.02;;;7.90;;
17686;SDS011;8962;52.538;13.266;2023-09-18T01:42:02;8.80;;;7.40;;
17686;SDS011;8962;52.538;13.266;2023-09-18T01:44:30;9.63;;;7.68;;
17686;SDS011;8962;52.538;13.266;2023-09-18T01:46:58;10.35;;;7.20;;
17686;SDS011;8962;52.538;13.266;2023-09-18T01:49:28;10.85;;;7.50;;
17686;SDS011;8962;52.538;13.266;2023-09-18T01:51:56;8.05;;;6.90;;
17686;SDS011;8962;52.538;13.266;2023-09-18T01:54:23;10.77;;;7.20;;
17686;SDS011;8962;52.538;13.266;2023-09-18T01:56:52;8.45;;;7.32;;
17686;SDS011;8962;52.538;13.266;2023-09-18T01:59:21;9.70;;;7.35;;
17686;SDS011;8962;52.538;13.266;2023-09-18T02:01:49;9.38;;;7.40;;
17686;SDS011;8962;52.538;13.266;2023-09-18T02:04:17;9.98;;;8.02;;
17686;SDS011;8962;52.538;13.266;2023-09-18T02:06:44;8.75;;;7.85;;
17686;SDS011;8962;52.538;13.266;2023-09-18T02:09:12;14.55;;;7.72;;
17686;SDS011;8962;52.538;13.266;2023-09-18T02:11:40;9.43;;;7.45;;
17686;SDS011;8962;52.538;13.266;2023-09-18T02:14:09;8.55;;;7.15;;
17686;SDS011;8962;52.538;13.266;2023-09-18T02:16:39;9.15;;;7.78;;
17686;SDS011;8962;52.538;13.266;2023-09-18T02:19:07;11.55;;;7.47;;
17686;SDS011;8962;52.538;13.266;2023-09-18T02:21:37;9.23;;;7.10;;
17686;SDS011;8962;52.538;13.266;2023-09-18T02:24:05;9.60;;;7.05;;
17686;SDS011;8962;52.538;13.266;2023-09-18T02:26:32;15.77;;;12.07;;
17686;SDS011;8962;52.538;13.266;2023-09-18T02:29:02;14.27;;;10.75;;
17686;SDS011;8962;52.538;13.266;2023-09-18T02:31:32;11.63;;;8.98;;
17686;SDS011;8962;52.538;13.266;2023-09-18T02:34:00;10.32;;;8.25;;
17686;SDS011;8962;52.538;13.266;2023-09-18T02:36:27;10.60;;;8.65;;
17686;SDS011;8962;52.538;13.266;2023-09-18T02:38:54;11.90;;;8.23;;
17686;SDS011;8962;52.538;13.266;2023-09-18T02:41:21;11.13;;;8.60;;
17686;SDS011;8962;52.538;13.266;2023-09-18T02:43:48;8.73;;;7.70;;
17686;SDS011;8962;52.538;13.266;2023-09-18T02:46:16;9.95;;;7.82;;
17686;SDS011;8962;52.538;13.266;2023-09-18T02:48:43;9.15;;;7.32;;
17686;SDS011;8962;52.538;13.266;2023-09-18T02:51:12;8.70;;;7.80;;
17686;SDS011;8962;52.538;13.266;2023-09-18T02:53:39;8.55;;;7.65;;
17686;SDS011;8962;52.538;13.266;2023-09-18T02:56:07;8.05;;;7.10;;
17686;SDS011;8962;52.538;13.266;2023-09-18T02:58:34;9.38;;;7.90;;
17686;SDS011;8962;52.538;13.266;2023-09-18T03:01:01;7.95;;;7.03;;
17686;SDS011;8962;52.538;13.266;2023-09-18T03:03:31;8.38;;;7.45;;
17686;SDS011;8962;52.538;13.266;2023-09-18T03:06:02;8.30;;;7.40;;
17686;SDS011;8962;52.538;13.266;2023-09-18T03:08:33;9.32;;;7.13;;
17686;SDS011;8962;52.538;13.266;2023-09-18T03:11:03;8.65;;;7.43;;
17686;SDS011;8962;52.538;13.266;2023-09-18T03:13:42;9.43;;;7.15;;
17686;SDS011;8962;52.538;13.266;2023-09-18T03:16:11;10.77;;;8.82;;
17686;SDS011;8962;52.538;13.266;2023-09-18T03:18:39;9.40;;;7.80;;
17686;SDS011;8962;52.538;13.266;2023-09-18T03:21:09;9.02;;;7.78;;
17686;SDS011;8962;52.538;13.266;2023-09-18T03:23:38;9.50;;;7.25;;
17686;SDS011;8962;52.538;13.266;2023-09-18T03:26:05;9.43;;;7.38;;
17686;SDS011;8962;52.538;13.266;2023-09-18T03:28:33;9.63;;;7.63;;
17686;SDS011;8962;52.538;13.266;2023-09-18T03:31:01;8.20;;;7.20;;
17686;SDS011;8962;52.538;13.266;2023-09-18T03:33:30;11.38;;;7.97;;
17686;SDS011;8962;52.538;13.266;2023-09-18T03:35:59;10.23;;;7.18;;
17686;SDS011;8962;52.538;13.266;2023-09-18T03:38:29;8.77;;;7.47;;
17686;SDS011;8962;52.538;13.266;2023-09-18T03:41:00;8.00;;;7.18;;
17686;SDS011;8962;52.538;13.266;2023-09-18T03:43:27;8.40;;;7.05;;
17686;SDS011;8962;52.538;13.266;2023-09-18T03:45:54;9.63;;;7.30;;
17686;SDS011;8962;52.538;13.266;2023-09-18T03:48:30;9.82;;;7.85;;
17686;SDS011;8962;52.538;13.266;2023-09-18T03:51:02;10.20;;;7.30;;
17686;SDS011;8962;52.538;13.266;2023-09-18T03:53:30;8.90;;;7.60;;
17686;SDS011;8962;52.538;13.266;2023-09-18T03:56:02;8.57;;;6.97;;
17686;SDS011;8962;52.538;13.266;2023-09-18T03:58:29;9.70;;;7.00;;
17686;SDS011;8962;52.538;13.266;2023-09-18T04:00:56;9.80;;;7.15;;
17686;SDS011;8962;52.538;13.266;2023-09-18T04:03:25;8.73;;;7.47;;
17686;SDS011;8962;52.538;13.266;2023-09-18T04:05:52;8.30;;;7.43;;
17686;SDS011;8962;52.538;13.266;2023-09-18T04:08:25;8.32;;;7.43;;
17686;SDS011;8962;52.538;13.266;2023-09-18T04:10:53;11.73;;;7.45;;
17686;SDS011;8962;52.538;13.266;2023-09-18T04:13:24;9.48;;;7.68;;
17686;SDS011;8962;52.538;13.266;2023-09-18T04:15:52;8.38;;;7.55;;
17686;SDS011;8962;52.538;13.266;2023-09-18T04:18:22;8.70;;;7.18;;
17686;SDS011;8962;52.538;13.266;2023-09-18T04:20:49;8.82;;;7.30;;
17686;SDS011;8962;52.538;13.266;2023-09-18T04:23:18;8.35;;;6.95;;
17686;SDS011;8962;52.538;13.266;2023-09-18T04:25:47;8.15;;;7.20;;
17686;SDS011;8962;52.538;13.266;2023-09-18T04:28:15;9.45;;;7.85;;
17686;SDS011;8962;52.538;13.266;2023-09-18T04:30:44;8.50;;;6.90;;
17686;SDS011;8962;52.538;13.266;2023-09-18T04:33:12;8.82;;;7.30;;
17686;SDS011;8962;52.538;13.266;2023-09-18T04:35:40;10.32;;;7.95;;
17686;SDS011;8962;52.538;13.266;2023-09-18T04:38:07;10.18;;;7.75;;
17686;SDS011;8962;52.538;13.266;2023-09-18T04:40:36;9.43;;;8.07;;
17686;SDS011;8962;52.538;13.266;2023-09-18T04:43:04;11.32;;;7.47;;
17686;SDS011;8962;52.538;13.266;2023-09-18T04:45:31;9.05;;;7.47;;
17686;SDS011;8962;52.538;13.266;2023-09-18T04:48:02;9.55;;;7.63;;
17686;SDS011;8962;52.538;13.266;2023-09-18T04:50:31;10.60;;;8.15;;
17686;SDS011;8962;52.538;13.266;2023-09-18T04:52:59;9.77;;;8.20;;
17686;SDS011;8962;52.538;13.266;2023-09-18T04:55:27;9.93;;;7.93;;
17686;SDS011;8962;52.538;13.266;2023-09-18T04:57:54;12.63;;;8.07;;
17686;SDS011;8962;52.538;13.266;2023-09-18T05:00:23;9.40;;;8.23;;
17686;SDS011;8962;52.538;13.266;2023-09-18T05:02:52;10.15;;;7.95;;
17686;SDS011;8962;52.538;13.266;2023-09-18T05:05:21;11.55;;;8.02;;
17686;SDS011;8962;52.538;13.266;2023-09-18T05:07:48;10.02;;;8.90;;
17686;SDS011;8962;52.538;13.266;2023-09-18T05:10:17;13.30;;;8.40;;
17686;SDS011;8962;52.538;13.266;2023-09-18T05:12:44;14.25;;;8.18;;
17686;SDS011;8962;52.538;13.266;2023-09-18T05:15:11;10.60;;;8.07;;
17686;SDS011;8962;52.538;13.266;2023-09-18T05:17:39;9.60;;;7.60;;
17686;SDS011;8962;52.538;13.266;2023-09-18T05:20:09;9.95;;;8.07;;
17686;SDS011;8962;52.538;13.266;2023-09-18T05:22:40;10.48;;;8.00;;
17686;SDS011;8962;52.538;13.266;2023-09-18T05:25:08;12.10;;;7.68;;
17686;SDS011;8962;52.538;13.266;2023-09-18T05:27:35;11.80;;;8.05;;
17686;SDS011;8962;52.538;13.266;2023-09-18T05:30:10;9.82;;;8.23;;
17686;SDS011;8962;52.538;13.266;2023-09-18T05:32:41;9.63;;;7.93;;
17686;SDS011;8962;52.538;13.266;2023-09-18T05:35:08;11.38;;;7.88;;
17686;SDS011;8962;52.538;13.266;2023-09-18T05:37:38;9.68;;;7.63;;
17686;SDS011;8962;52.538;13.266;2023-09-18T05:40:07;10.65;;;7.97;;
17686;SDS011;8962;52.538;13.266;2023-09-18T05:42:36;11.85;;;7.93;;
17686;SDS011;8962;52.538;13.266;2023-09-18T05:45:03;12.98;;;7.90;;
17686;SDS011;8962;52.538;13.266;2023-09-18T05:47:32;10.40;;;7.50;;
17686;SDS011;8962;52.538;13.266;2023-09-18T05:50:03;9.98;;;7.38;;
17686;SDS011;8962;52.538;13.266;2023-09-18T05:52:32;11.27;;;7.63;;
17686;SDS011;8962;52.538;13.266;2023-09-18T05:54:59;10.18;;;7.32;;
17686;SDS011;8962;52.538;13.266;2023-09-18T05:57:27;8.50;;;7.60;;
17686;SDS011;8962;52.538;13.266;2023-09-18T05:59:55;9.40;;;7.07;;
17686;SDS011;8962;52.538;13.266;2023-09-18T06:02:22;10.85;;;7.20;;
17686;SDS011;8962;52.538;13.266;2023-09-18T06:04:54;9.52;;;7.43;;
17686;SDS011;8962;52.538;13.266;2023-09-18T06:07:25;10.55;;;6.95;;
17686;SDS011;8962;52.538;13.266;2023-09-18T06:09:52;8.95;;;6.65;;
17686;SDS011;8962;52.538;13.266;2023-09-18T06:12:20;8.07;;;6.75;;
17686;SDS011;8962;52.538;13.266;2023-09-18T06:14:49;8.75;;;6.95;;
17686;SDS011;8962;52.538;13.266;2023-09-18T06:17:16;9.88;;;7.05;;
17686;SDS011;8962;52.538;13.266;2023-09-18T06:19:44;12.13;;;7.18;;
17686;SDS011;8962;52.538;13.266;2023-09-18T06:22:12;7.57;;;6.55;;
17686;SDS011;8962;52.538;13.266;2023-09-18T06:24:39;12.05;;;7.32;;
17686;SDS011;8962;52.538;13.266;2023-09-18T06:27:07;13.13;;;7.30;;
17686;SDS011;8962;52.538;13.266;2023-09-18T06:29:34;7.90;;;7.10;;
17686;SDS011;8962;52.538;13.266;2023-09-18T06:32:04;9.65;;;7.15;;
17686;SDS011;8962;52.538;13.266;2023-09-18T06:34:32;11.82;;;7.47;;
17686;SDS011;8962;52.538;13.266;2023-09-18T06:36:59;11.68;;;6.72;;
17686;SDS011;8962;52.538;13.266;2023-09-18T06:39:29;8.32;;;6.90;;
17686;SDS011;8962;52.538;13.266;2023-09-18T06:41:56;7.40;;;6.70;;
17686;SDS011;8962;52.538;13.266;2023-09-18T06:44:24;7.82;;;6.95;;
17686;SDS011;8962;52.538;13.266;2023-09-18T06:46:51;8.15;;;7.07;;
17686;SDS011;8962;52.538;13.266;2023-09-18T06:49:20;10.00;;;6.70;;
17686;SDS011;8962;52.538;13.266;2023-09-18T06:51:47;8.65;;;7.18;;
17686;SDS011;8962;52.538;13.266;2023-09-18T06:54:14;8.45;;;7.05;;
17686;SDS011;8962;52.538;13.266;2023-09-18T06:56:41;9.15;;;6.55;;
17686;SDS011;8962;52.538;13.266;2023-09-18T06:59:09;9.63;;;7.10;;
17686;SDS011;8962;52.538;13.266;2023-09-18T07:01:37;11.60;;;7.05;;
17686;SDS011;8962;52.538;13.266;2023-09-18T07:04:06;10.40;;;7.20;;
17686;SDS011;8962;52.538;13.266;2023-09-18T07:06:35;8.40;;;6.47;;
17686;SDS011;8962;52.538;13.266;2023-09-18T07:09:02;8.23;;;6.75;;
17686;SDS011;8962;52.538;13.266;2023-09-18T07:11:32;9.30;;;6.38;;
17686;SDS011;8962;52.538;13.266;2023-09-18T07:13:59;15.20;;;6.80;;
17686;SDS011;8962;52.538;13.266;2023-09-18T07:16:27;11.35;;;6.70;;
17686;SDS011;8962;52.538;13.266;2023-09-18T07:18:54;11.43;;;6.63;;
17686;SDS011;8962;52.538;13.266;2023-09-18T07:21:22;7.50;;;6.43;;
17686;SDS011;8962;52.538;13.266;2023-09-18T07:23:52;9.80;;;6.47;;
17686;SDS011;8962;52.538;13.266;2023-09-18T07:26:19;7.35;;;5.90;;
17686;SDS011;8962;52.538;13.266;2023-09-18T07:28:46;8.55;;;6.00;;
17686;SDS011;8962;52.538;13.266;2023-09-18T07:31:13;9.40;;;6.38;;
17686;SDS011;8962;52.538;13.266;2023-09-18T07:33:42;7.93;;;6.18;;
17686;SDS011;8962;52.538;13.266;2023-09-18T07:36:09;6.43;;;5.70;;
17686;SDS011;8962;52.538;13.266;2023-09-18T07:38:37;8.77;;;6.00;;
17686;SDS011;8962;52.538;13.266;2023-09-18T07:41:09;8.13;;;6.30;;
17686;SDS011;8962;52.538;13.266;2023-09-18T07:43:37;6.60;;;5.90;;
17686;SDS011;8962;52.538;13.266;2023-09-18T07:46:05;8.38;;;6.15;;
17686;SDS011;8962;52.538;13.266;2023-09-18T07:48:32;8.63;;;5.75;;
17686;SDS011;8962;52.538;13.266;2023-09-18T07:51:00;7.57;;;5.90;;
17686;SDS011;8962;52.538;13.266;2023-09-18T07:53:27;7.63;;;5.97;;
17686;SDS011;8962;52.538;13.266;2023-09-18T07:55:57;7.90;;;5.32;;
17686;SDS011;8962;52.538;13.266;2023-09-18T07:58:28;9.73;;;5.80;;
17686;SDS011;8962;52.538;13.266;2023-09-18T08:00:55;6.25;;;5.50;;
17686;SDS011;8962;52.538;13.266;2023-09-18T08:03:24;6.43;;;5.45;;
17686;SDS011;8962;52.538;13.266;2023-09-18T08:05:51;7.03;;;5.13;;
17686;SDS011;8962;52.538;13.266;2023-09-18T08:08:19;8.00;;;5.30;;
17686;SDS011;8962;52.538;13.266;2023-09-18T08:10:47;6.88;;;5.40;;
17686;SDS011;8962;52.538;13.266;2023-09-18T08:13:15;7.38;;;5.25;;
17686;SDS011;8962;52.538;13.266;2023-09-18T08:15:44;6.00;;;5.40;;
17686;SDS011;8962;52.538;13.266;2023-09-18T08:18:12;7.90;;;5.45;;
17686;SDS011;8962;52.538;13.266;2023-09-18T08:20:40;8.25;;;5.35;;
17686;SDS011;8962;52.538;13.266;2023-09-18T08:23:10;6.05;;;5.38;;
17686;SDS011;8962;52.538;13.266;2023-09-18T08:25:37;5.72;;;5.03;;
17686;SDS011;8962;52.538;13.266;2023-09-18T08:28:05;8.07;;;5.35;;
17686;SDS011;8962;52.538;13.266;2023-09-18T08:30:33;10.93;;;5.07;;
17686;SDS011;8962;52.538;13.266;2023-09-18T08:33:03;6.28;;;5.22;;
17686;SDS011;8962;52.538;13.266;2023-09-18T08:35:31;5.20;;;4.70;;
17686;SDS011;8962;52.538;13.266;2023-09-18T08:37:58;6.63;;;5.35;;
17686;SDS011;8962;52.538;13.266;2023-09-18T08:40:25;8.35;;;5.43;;
17686;SDS011;8962;52.538;13.266;2023-09-18T08:42:53;7.85;;;4.90;;
17686;SDS011;8962;52.538;13.266;2023-09-18T08:45:26;6.05;;;5.38;;
17686;SDS011;8962;52.538;13.266;2023-09-18T08:47:58;8.45;;;4.50;;
17686;SDS011;8962;52.538;13.266;2023-09-18T08:50:28;5.60;;;4.80;;
17686;SDS011;8962;52.538;13.266;2023-09-18T08:52:57;5.63;;;4.65;;
17686;SDS011;8962;52.538;13.266;2023-09-18T08:55:25;5.72;;;4.57;;
17686;SDS011;8962;52.538;13.266;2023-09-18T08:57:52;9.10;;;4.53;;
17686;SDS011;8962;52.538;13.266;2023-09-18T09:00:21;5.30;;;4.80;;
17686;SDS011;8962;52.538;13.266;2023-09-18T09:02:48;9.52;;;5.65;;
17686;SDS011;8962;52.538;13.266;2023-09-18T09:05:17;14.48;;;9.57;;
17686;SDS011;8962;52.538;13.266;2023-09-18T09:07:46;12.10;;;9.57;;
17686;SDS011;8962;52.538;13.266;2023-09-18T09:10:14;38.28;;;25.10;;
17686;SDS011;8962;52.538;13.266;2023-09-18T09:12:52;11.88;;;9.05;;
17686;SDS011;8962;52.538;13.266;2023-09-18T09:15:20;17.42;;;14.32;;
17686;SDS011;8962;52.538;13.266;2023-09-18T09:17:50;9.25;;;8.27;;
17686;SDS011;8962;52.538;13.266;2023-09-18T09:20:18;10.40;;;8.80;;
17686;SDS011;8962;52.538;13.266;2023-09-18T09:22:47;6.05;;;4.47;;
17686;SDS011;8962;52.538;13.266;2023-09-18T09:25:21;6.22;;;5.00;;
17686;SDS011;8962;52.538;13.266;2023-09-18T09:27:51;7.95;;;5.82;;
17686;SDS011;8962;52.538;13.266;2023-09-18T09:30:20;7.28;;;5.15;;
17686;SDS011;8962;52.538;13.266;2023-09-18T09:32:50;7.88;;;5.45;;
17686;SDS011;8962;52.538;13.266;2023-09-18T09:35:19;8.00;;;5.28;;
17686;SDS011;8962;52.538;13.266;2023-09-18T09:37:49;9.27;;;5.63;;
17686;SDS011;8962;52.538;13.266;2023-09-18T09:40:21;7.13;;;5.72;;
17686;SDS011;8962;52.538;13.266;2023-09-18T09:42:50;6.53;;;4.88;;
17686;SDS011;8962;52.538;13.266;2023-09-18T09:45:19;5.05;;;4.07;;
17686;SDS011;8962;52.538;13.266;2023-09-18T09:47:46;5.78;;;4.15;;
17686;SDS011;8962;52.538;13.266;2023-09-18T09:50:15;5.15;;;4.38;;
17686;SDS011;8962;52.538;13.266;2023-09-18T09:52:44;4.55;;;4.15;;
17686;SDS011;8962;52.538;13.266;2023-09-18T09:55:26;8.38;;;4.50;;
17686;SDS011;8962;52.538;13.266;2023-09-18T09:57:55;4.53;;;4.13;;
17686;SDS011;8962;52.538;13.266;2023-09-18T10:00:29;6.15;;;4.53;;
17686;SDS011;8962;52.538;13.266;2023-09-18T10:03:03;5.22;;;4.47;;
17686;SDS011;8962;52.538;13.266;2023-09-18T10:05:31;4.80;;;4.30;;
17686;SDS011;8962;52.538;13.266;2023-09-18T10:08:06;5.35;;;4.38;;
17686;SDS011;8962;52.538;13.266;2023-09-18T10:10:36;5.07;;;4.40;;
17686;SDS011;8962;52.538;13.266;2023-09-18T10:13:07;8.30;;;4.85;;
17686;SDS011;8962;52.538;13.266;2023-09-18T10:15:38;4.75;;;4.10;;
17686;SDS011;8962;52.538;13.266;2023-09-18T10:18:14;5.63;;;4.03;;
17686;SDS011;8962;52.538;13.266;2023-09-18T10:20:46;5.82;;;4.55;;
17686;SDS011;8962;52.538;13.266;2023-09-18T10:23:20;9.25;;;4.80;;
17686;SDS011;8962;52.538;13.266;2023-09-18T10:26:01;5.32;;;4.30;;
17686;SDS011;8962;52.538;13.266;2023-09-18T10:28:31;4.35;;;3.95;;
17686;SDS011;8962;52.538;13.266;2023-09-18T10:31:00;8.10;;;5.60;;
17686;SDS011;8962;52.538;13.266;2023-09-18T10:33:28;4.63;;;4.22;;
17686;SDS011;8962;52.538;13.266;2023-09-18T10:35:56;6.65;;;4.97;;
17686;SDS011;8962;52.538;13.266;2023-09-18T10:38:27;6.95;;;5.03;;
17686;SDS011;8962;52.538;13.266;2023-09-18T10:40:57;12.80;;;7.50;;
17686;SDS011;8962;52.538;13.266;2023-09-18T10:43:27;5.63;;;4.18;;
17686;SDS011;8962;52.538;13.266;2023-09-18T10:45:54;6.10;;;3.90;;
17686;SDS011;8962;52.538;13.266;2023-09-18T10:48:21;5.55;;;3.95;;
17686;SDS011;8962;52.538;13.266;2023-09-18T10:50:52;5.75;;;4.05;;
17686;SDS011;8962;52.538;13.266;2023-09-18T10:53:19;4.43;;;4.03;;
17686;SDS011;8962;52.538;13.266;2023-09-18T10:55:48;5.28;;;3.95;;
17686;SDS011;8962;52.538;13.266;2023-09-18T10:58:24;4.43;;;3.95;;
17686;SDS011;8962;52.538;13.266;2023-09-18T11:00:54;11.05;;;6.15;;
17686;SDS011;8962;52.538;13.266;2023-09-18T11:03:23;5.35;;;4.03;;
17686;SDS011;8962;52.538;13.266;2023-09-18T11:08:43;4.50;;;4.10;;
17686;SDS011;8962;52.538;13.266;2023-09-18T11:11:11;8.10;;;4.35;;
17686;SDS011;8962;52.538;13.266;2023-09-18T11:13:40;5.68;;;4.25;;
17686;SDS011;8962;52.538;13.266;2023-09-18T11:16:14;4.90;;;4.30;;
17686;SDS011;8962;52.538;13.266;2023-09-18T11:19:10;6.25;;;4.72;;
17686;SDS011;8962;52.538;13.266;2023-09-18T11:21:40;5.65;;;4.50;;
17686;SDS011;8962;52.538;13.266;2023-09-18T11:24:14;5.78;;;4.47;;
17686;SDS011;8962;52.538;13.266;2023-09-18T11:26:44;11.00;;;5.85;;
17686;SDS011;8962;52.538;13.266;2023-09-18T11:29:14;9.23;;;6.03;;
17686;SDS011;8962;52.538;13.266;2023-09-18T11:31:46;6.53;;;5.15;;
17686;SDS011;8962;52.538;13.266;2023-09-18T11:34:19;9.00;;;4.80;;
17686;SDS011;8962;52.538;13.266;2023-09-18T11:36:48;4.82;;;4.43;;
17686;SDS011;8962;52.538;13.266;2023-09-18T11:39:35;5.07;;;4.57;;
17686;SDS011;8962;52.538;13.266;2023-09-18T11:42:08;6.13;;;4.57;;
17686;SDS011;8962;52.538;13.266;2023-09-18T11:44:36;5.85;;;4.47;;
17686;SDS011;8962;52.538;13.266;2023-09-18T11:47:13;5.03;;;4.30;;
17686;SDS011;8962;52.538;13.266;2023-09-18T11:49:48;5.82;;;4.55;;
17686;SDS011;8962;52.538;13.266;2023-09-18T11:52:19;5.05;;;4.40;;
17686;SDS011;8962;52.538;13.266;2023-09-18T11:54:48;5.13;;;4.63;;
17686;SDS011;8962;52.538;13.266;2023-09-18T11:57:16;7.60;;;5.10;;
17686;SDS011;8962;52.538;13.266;2023-09-18T11:59:44;5.28;;;4.78;;
17686;SDS011;8962;52.538;13.266;2023-09-18T12:02:13;5.25;;;4.63;;
17686;SDS011;8962;52.538;13.266;2023-09-18T12:04:55;5.53;;;5.00;;
17686;SDS011;8962;52.538;13.266;2023-09-18T12:07:23;6.82;;;4.72;;
17686;SDS011;8962;52.538;13.266;2023-09-18T12:09:50;5.18;;;4.45;;
17686;SDS011;8962;52.538;13.266;2023-09-18T12:12:19;5.00;;;4.40;;
17686;SDS011;8962;52.538;13.266;2023-09-18T12:14:47;5.10;;;4.60;;
17686;SDS011;8962;52.538;13.266;2023-09-18T12:17:18;6.10;;;4.60;;
17686;SDS011;8962;52.538;13.266;2023-09-18T12:19:51;6.35;;;4.65;;
17686;SDS011;8962;52.538;13.266;2023-09-18T12:22:23;4.90;;;4.22;;
17686;SDS011;8962;52.538;13.266;2023-09-18T12:24:52;4.38;;;3.97;;
17686;SDS011;8962;52.538;13.266;2023-09-18T12:27:20;4.43;;;3.60;;
17686;SDS011;8962;52.538;13.266;2023-09-18T12:29:52;5.50;;;3.90;;
17686;SDS011;8962;52.538;13.266;2023-09-18T12:32:20;3.90;;;3.50;;
17686;SDS011;8962;52.538;13.266;2023-09-18T12:34:48;5.28;;;3.60;;
17686;SDS011;8962;52.538;13.266;2023-09-18T12:37:18;4.95;;;3.90;;
17686;SDS011;8962;52.538;13.266;2023-09-18T12:39:46;5.97;;;4.10;;
17686;SDS011;8962;52.538;13.266;2023-09-18T12:42:17;5.63;;;4.07;;
17686;SDS011;8962;52.538;13.266;2023-09-18T12:44:45;7.15;;;3.83;;
17686;SDS011;8962;52.538;13.266;2023-09-18T12:47:13;4.28;;;3.53;;
17686;SDS011;8962;52.538;13.266;2023-09-18T12:49:42;4.28;;;3.72;;
17686;SDS011;8962;52.538;13.266;2023-09-18T12:52:12;7.47;;;3.85;;
17686;SDS011;8962;52.538;13.266;2023-09-18T12:54:39;5.15;;;4.20;;
17686;SDS011;8962;52.538;13.266;2023-09-18T12:57:08;4.95;;;4.13;;
17686;SDS011;8962;52.538;13.266;2023-09-18T12:59:36;5.20;;;3.80;;
17686;SDS011;8962;52.538;13.266;2023-09-18T13:02:04;5.95;;;4.13;;
17686;SDS011;8962;52.538;13.266;2023-09-18T13:04:32;4.63;;;3.67;;
17686;SDS011;8962;52.538;13.266;2023-09-18T13:07:13;6.00;;;4.28;;
17686;SDS011;8962;52.538;13.266;2023-09-18T13:09:41;7.20;;;4.07;;
17686;SDS011;8962;52.538;13.266;2023-09-18T13:12:09;5.57;;;4.03;;
17686;SDS011;8962;52.538;13.266;2023-09-18T13:17:26;4.72;;;4.22;;
17686;SDS011;8962;52.538;13.266;2023-09-18T13:19:54;5.28;;;4.10;;
17686;SDS011;8962;52.538;13.266;2023-09-18T13:22:25;7.20;;;4.10;;
17686;SDS011;8962;52.538;13.266;2023-09-18T13:24:55;7.10;;;3.95;;
17686;SDS011;8962;52.538;13.266;2023-09-18T13:27:23;5.05;;;4.28;;
17686;SDS011;8962;52.538;13.266;2023-09-18T13:29:51;6.78;;;4.47;;
17686;SDS011;8962;52.538;13.266;2023-09-18T13:32:19;6.13;;;3.95;;
17686;SDS011;8962;52.538;13.266;2023-09-18T13:34:47;7.65;;;4.20;;
17686;SDS011;8962;52.538;13.266;2023-09-18T13:37:14;5.30;;;4.10;;
17686;SDS011;8962;52.538;13.266;2023-09-18T13:39:43;8.32;;;4.30;;
17686;SDS011;8962;52.538;13.266;2023-09-18T13:42:11;6.53;;;4.10;;
17686;SDS011;8962;52.538;13.266;2023-09-18T13:44:38;6.70;;;4.10;;
17686;SDS011;8962;52.538;13.266;2023-09-18T13:47:05;7.15;;;4.68;;
17686;SDS011;8962;52.538;13.266;2023-09-18T13:49:33;10.90;;;5.57;;
17686;SDS011;8962;52.538;13.266;2023-09-18T13:52:02;7.75;;;5.13;;
17686;SDS011;8962;52.538;13.266;2023-09-18T13:54:33;10.88;;;5.15;;
17686;SDS011;8962;52.538;13.266;2023-09-18T13:57:01;6.25;;;4.05;;
17686;SDS011;8962;52.538;13.266;2023-09-18T13:59:30;7.10;;;4.38;;
17686;SDS011;8962;52.538;13.266;2023-09-18T14:01:57;5.43;;;3.80;;
17686;SDS011;8962;52.538;13.266;2023-09-18T14:04:24;6.47;;;3.97;;
17686;SDS011;8962;52.538;13.266;2023-09-18T14:06:55;8.45;;;4.05;;
17686;SDS011;8962;52.538;13.266;2023-09-18T14:09:25;5.10;;;3.90;;
17686;SDS011;8962;52.538;13.266;2023-09-18T14:11:53;9.15;;;4.05;;
17686;SDS011;8962;52.538;13.266;2023-09-18T14:14:23;5.80;;;4.07;;
17686;SDS011;8962;52.538;13.266;2023-09-18T14:16:50;8.63;;;3.70;;
17686;SDS011;8962;52.538;13.266;2023-09-18T14:19:18;7.40;;;4.03;;
17686;SDS011;8962;52.538;13.266;2023-09-18T14:21:46;5.85;;;4.20;;
17686;SDS011;8962;52.538;13.266;2023-09-18T14:24:14;4.55;;;3.55;;
17686;SDS011;8962;52.538;13.266;2023-09-18T14:26:47;6.90;;;3.60;;
17686;SDS011;8962;52.538;13.266;2023-09-18T14:29:14;7.53;;;3.45;;
17686;SDS011;8962;52.538;13.266;2023-09-18T14:31:43;7.13;;;3.30;;
17686;SDS011;8962;52.538;13.266;2023-09-18T14:34:11;7.93;;;3.85;;
17686;SDS011;8962;52.538;13.266;2023-09-18T14:36:38;6.32;;;3.35;;
17686;SDS011;8962;52.538;13.266;2023-09-18T14:39:06;4.63;;;3.13;;
17686;SDS011;8962;52.538;13.266;2023-09-18T14:41:34;6.78;;;3.22;;
17686;SDS011;8962;52.538;13.266;2023-09-18T14:44:01;12.80;;;8.73;;
17686;SDS011;8962;52.538;13.266;2023-09-18T14:46:29;6.05;;;4.50;;
17686;SDS011;8962;52.538;13.266;2023-09-18T14:48:59;6.65;;;3.08;;
17686;SDS011;8962;52.538;13.266;2023-09-18T14:51:29;8.77;;;3.47;;
17686;SDS011;8962;52.538;13.266;2023-09-18T14:53:57;9.55;;;3.72;;
17686;SDS011;8962;52.538;13.266;2023-09-18T14:56:25;5.90;;;2.95;;
17686;SDS011;8962;52.538;13.266;2023-09-18T14:58:53;4.35;;;2.53;;
17686;SDS011;8962;52.538;13.266;2023-09-18T15:01:21;6.32;;;3.75;;